sensor_id;sensor_type;location;lat;lon;timestamp;temperature;humidity
12833;DHT22;6483;51.310;4.462;2023-02-15T00:01:57;0.60;99.90
12833;DHT22;6483;51.310;4.462;2023-02-15T00:04:25;0.60;99.90
12833;DHT22;6483;51.310;4.462;2023-02-15T00:07:12;0.60;99.90
12833;DHT22;6483;51.310;4.462;2023-02-15T00:09:41;1.80;99.90
12833;DHT22;6483;51.310;4.462;2023-02-15T00:12:08;0.50;99.90
12833;DHT22;6483;51.310;4.462;2023-02-15T00:14:33;0.50;99.90
12833;DHT22;6483;51.310;4.462;2023-02-15T00:16:59;0.50;99.90
12833;DHT22;6483;51.310;4.462;2023-02-15T00:19:25;0.60;99.90
12833;DHT22;6483;51.310;4.462;2023-02-15T00:21:57;0.50;99.90
12833;DHT22;6483;51.310;4.462;2023-02-15T00:24:23;0.50;99.90
12833;DHT22;6483;51.310;4.462;2023-02-15T00:26:48;0.40;99.90
12833;DHT22;6483;51.310;4.462;2023-02-15T00:29:19;0.40;99.90
12833;DHT22;6483;51.310;4.462;2023-02-15T00:31:47;0.40;99.90
12833;DHT22;6483;51.310;4.462;2023-02-15T00:34:24;0.40;99.90
12833;DHT22;6483;51.310;4.462;2023-02-15T00:36:51;0.40;99.90
12833;DHT22;6483;51.310;4.462;2023-02-15T00:39:18;0.40;99.90
12833;DHT22;6483;51.310;4.462;2023-02-15T00:41:45;0.80;99.90
12833;DHT22;6483;51.310;4.462;2023-02-15T00:44:13;0.50;99.90
12833;DHT22;6483;51.310;4.462;2023-02-15T00:46:38;0.50;99.90
12833;DHT22;6483;51.310;4.462;2023-02-15T00:49:08;0.50;99.90
12833;DHT22;6483;51.310;4.462;2023-02-15T00:51:34;0.50;99.90
12833;DHT22;6483;51.310;4.462;2023-02-15T00:53:59;1.00;99.90
12833;DHT22;6483;51.310;4.462;2023-02-15T00:56:28;0.40;99.90
12833;DHT22;6483;51.310;4.462;2023-02-15T00:58:54;0.50;99.90
12833;DHT22;6483;51.310;4.462;2023-02-15T01:01:20;0.40;99.90
12833;DHT22;6483;51.310;4.462;2023-02-15T01:03:52;1.30;99.90
12833;DHT22;6483;51.310;4.462;2023-02-15T01:06:18;0.30;99.90
12833;DHT22;6483;51.310;4.462;2023-02-15T01:08:45;0.30;99.90
12833;DHT22;6483;51.310;4.462;2023-02-15T01:11:17;0.30;99.90
12833;DHT22;6483;51.310;4.462;2023-02-15T01:13:56;0.20;99.90
12833;DHT22;6483;51.310;4.462;2023-02-15T01:16:24;0.20;99.90
12833;DHT22;6483;51.310;4.462;2023-02-15T01:18:53;0.20;99.90
12833;DHT22;6483;51.310;4.462;2023-02-15T01:21:24;0.10;99.90
12833;DHT22;6483;51.310;4.462;2023-02-15T01:23:54;0.10;99.90
12833;DHT22;6483;51.310;4.462;2023-02-15T01:26:28;0.10;99.90
12833;DHT22;6483;51.310;4.462;2023-02-15T01:28:54;0.10;99.90
12833;DHT22;6483;51.310;4.462;2023-02-15T01:31:20;0.10;99.90
12833;DHT22;6483;51.310;4.462;2023-02-15T01:33:46;0.20;99.90
12833;DHT22;6483;51.310;4.462;2023-02-15T01:36:13;0.20;99.90
12833;DHT22;6483;51.310;4.462;2023-02-15T01:38:44;0.00;99.90
12833;DHT22;6483;51.310;4.462;2023-02-15T01:41:10;0.00;99.90
12833;DHT22;6483;51.310;4.462;2023-02-15T01:43:54;-0.10;99.90
12833;DHT22;6483;51.310;4.462;2023-02-15T01:46:33;-0.10;99.90
12833;DHT22;6483;51.310;4.462;2023-02-15T01:49:14;-0.10;99.90
12833;DHT22;6483;51.310;4.462;2023-02-15T01:51:42;0.00;99.90
12833;DHT22;6483;51.310;4.462;2023-02-15T01:54:29;0.00;99.90
12833;DHT22;6483;51.310;4.462;2023-02-15T01:57:05;0.00;99.90
12833;DHT22;6483;51.310;4.462;2023-02-15T01:59:35;0.00;99.90
12833;DHT22;6483;51.310;4.462;2023-02-15T02:02:02;-0.10;99.90
12833;DHT22;6483;51.310;4.462;2023-02-15T02:04:50;-0.10;99.90
12833;DHT22;6483;51.310;4.462;2023-02-15T02:07:19;-0.10;99.90
12833;DHT22;6483;51.310;4.462;2023-02-15T02:09:45;0.00;99.90
12833;DHT22;6483;51.310;4.462;2023-02-15T02:12:11;-0.20;99.90
12833;DHT22;6483;51.310;4.462;2023-02-15T02:14:41;-0.20;99.90
12833;DHT22;6483;51.310;4.462;2023-02-15T02:23:27;0.00;99.90
12833;DHT22;6483;51.310;4.462;2023-02-15T02:31:50;-0.20;99.90
12833;DHT22;6483;51.310;4.462;2023-02-15T02:34:35;-0.30;99.90
12833;DHT22;6483;51.310;4.462;2023-02-15T02:37:30;-0.30;99.90
12833;DHT22;6483;51.310;4.462;2023-02-15T02:41:01;-0.30;99.90
12833;DHT22;6483;51.310;4.462;2023-02-15T02:43:22;-0.30;99.90
12833;DHT22;6483;51.310;4.462;2023-02-15T02:46:00;-0.30;99.90
12833;DHT22;6483;51.310;4.462;2023-02-15T02:48:32;-0.40;99.90
12833;DHT22;6483;51.310;4.462;2023-02-15T02:51:01;-0.30;99.90
12833;DHT22;6483;51.310;4.462;2023-02-15T02:53:29;-0.40;99.90
12833;DHT22;6483;51.310;4.462;2023-02-15T02:56:22;-0.20;99.90
12833;DHT22;6483;51.310;4.462;2023-02-15T02:59:14;-0.60;99.90
12833;DHT22;6483;51.310;4.462;2023-02-15T03:01:55;-0.50;99.90
12833;DHT22;6483;51.310;4.462;2023-02-15T03:04:31;0.30;99.90
12833;DHT22;6483;51.310;4.462;2023-02-15T03:07:04;-0.50;99.90
12833;DHT22;6483;51.310;4.462;2023-02-15T03:09:43;-0.50;99.90
12833;DHT22;6483;51.310;4.462;2023-02-15T03:12:45;-0.30;99.90
12833;DHT22;6483;51.310;4.462;2023-02-15T03:15:25;-0.30;99.90
12833;DHT22;6483;51.310;4.462;2023-02-15T03:18:12;-0.50;99.90
12833;DHT22;6483;51.310;4.462;2023-02-15T03:20:39;-0.50;99.90
12833;DHT22;6483;51.310;4.462;2023-02-15T03:23:09;-0.50;99.90
12833;DHT22;6483;51.310;4.462;2023-02-15T03:26:00;-0.50;99.90
12833;DHT22;6483;51.310;4.462;2023-02-15T03:28:53;-0.50;99.90
12833;DHT22;6483;51.310;4.462;2023-02-15T03:31:26;-0.50;99.90
12833;DHT22;6483;51.310;4.462;2023-02-15T03:34:00;-0.50;99.90
12833;DHT22;6483;51.310;4.462;2023-02-15T03:39:34;-0.60;99.90
12833;DHT22;6483;51.310;4.462;2023-02-15T03:42:12;-0.60;99.90
12833;DHT22;6483;51.310;4.462;2023-02-15T03:45:09;-0.60;99.90
12833;DHT22;6483;51.310;4.462;2023-02-15T03:47:57;-0.60;99.90
12833;DHT22;6483;51.310;4.462;2023-02-15T03:50:32;-0.60;99.90
12833;DHT22;6483;51.310;4.462;2023-02-15T03:53:19;-0.70;99.90
12833;DHT22;6483;51.310;4.462;2023-02-15T03:55:55;-0.60;99.90
12833;DHT22;6483;51.310;4.462;2023-02-15T03:58:21;-0.60;99.90
12833;DHT22;6483;51.310;4.462;2023-02-15T04:01:16;-0.70;99.90
12833;DHT22;6483;51.310;4.462;2023-02-15T04:04:14;-0.60;99.90
12833;DHT22;6483;51.310;4.462;2023-02-15T04:06:41;-0.70;99.90
12833;DHT22;6483;51.310;4.462;2023-02-15T04:09:06;-0.20;99.90
12833;DHT22;6483;51.310;4.462;2023-02-15T04:11:51;-0.70;99.90
12833;DHT22;6483;51.310;4.462;2023-02-15T04:14:20;-0.60;99.90
12833;DHT22;6483;51.310;4.462;2023-02-15T04:17:08;-0.70;99.90
12833;DHT22;6483;51.310;4.462;2023-02-15T04:19:34;-0.60;99.90
12833;DHT22;6483;51.310;4.462;2023-02-15T04:22:19;-0.70;99.90
12833;DHT22;6483;51.310;4.462;2023-02-15T04:25:04;-0.20;99.90
12833;DHT22;6483;51.310;4.462;2023-02-15T04:27:41;-0.30;99.90
12833;DHT22;6483;51.310;4.462;2023-02-15T04:30:09;-0.30;99.90
12833;DHT22;6483;51.310;4.462;2023-02-15T04:32:36;-0.50;99.90
12833;DHT22;6483;51.310;4.462;2023-02-15T04:35:02;-0.50;99.90
12833;DHT22;6483;51.310;4.462;2023-02-15T04:37:28;-0.50;99.90
12833;DHT22;6483;51.310;4.462;2023-02-15T04:39:54;-0.60;99.90
12833;DHT22;6483;51.310;4.462;2023-02-15T04:42:20;-0.60;99.90
12833;DHT22;6483;51.310;4.462;2023-02-15T04:44:45;-0.60;99.90
12833;DHT22;6483;51.310;4.462;2023-02-15T04:47:12;-0.60;99.90
12833;DHT22;6483;51.310;4.462;2023-02-15T04:49:38;-0.50;99.90
12833;DHT22;6483;51.310;4.462;2023-02-15T04:52:05;0.30;99.90
12833;DHT22;6483;51.310;4.462;2023-02-15T04:54:30;-0.60;99.90
12833;DHT22;6483;51.310;4.462;2023-02-15T04:56:56;-0.10;99.90
12833;DHT22;6483;51.310;4.462;2023-02-15T04:59:22;-0.70;99.90
12833;DHT22;6483;51.310;4.462;2023-02-15T05:01:48;0.10;99.90
12833;DHT22;6483;51.310;4.462;2023-02-15T05:04:14;0.10;99.90
12833;DHT22;6483;51.310;4.462;2023-02-15T05:06:43;-0.10;99.90
12833;DHT22;6483;51.310;4.462;2023-02-15T05:09:10;-0.70;99.90
12833;DHT22;6483;51.310;4.462;2023-02-15T05:11:36;0.50;99.90
12833;DHT22;6483;51.310;4.462;2023-02-15T05:14:01;-0.70;99.90
12833;DHT22;6483;51.310;4.462;2023-02-15T05:16:33;-0.60;99.90
12833;DHT22;6483;51.310;4.462;2023-02-15T05:18:59;-0.80;99.90
12833;DHT22;6483;51.310;4.462;2023-02-15T05:21:25;-0.90;99.90
12833;DHT22;6483;51.310;4.462;2023-02-15T05:23:51;-0.40;99.90
12833;DHT22;6483;51.310;4.462;2023-02-15T05:26:22;-0.90;99.90
12833;DHT22;6483;51.310;4.462;2023-02-15T05:29:06;-0.90;99.90
12833;DHT22;6483;51.310;4.462;2023-02-15T05:31:32;-0.80;99.90
12833;DHT22;6483;51.310;4.462;2023-02-15T05:34:00;-0.80;99.90
12833;DHT22;6483;51.310;4.462;2023-02-15T05:36:26;-0.80;99.90
12833;DHT22;6483;51.310;4.462;2023-02-15T05:38:52;0.40;99.90
12833;DHT22;6483;51.310;4.462;2023-02-15T05:41:18;-0.50;99.90
12833;DHT22;6483;51.310;4.462;2023-02-15T05:43:46;-0.70;99.90
12833;DHT22;6483;51.310;4.462;2023-02-15T05:46:15;-0.60;99.90
12833;DHT22;6483;51.310;4.462;2023-02-15T05:48:41;-0.40;99.90
12833;DHT22;6483;51.310;4.462;2023-02-15T05:51:12;-0.60;99.90
12833;DHT22;6483;51.310;4.462;2023-02-15T05:53:39;1.00;99.90
12833;DHT22;6483;51.310;4.462;2023-02-15T05:56:06;-0.40;99.90
12833;DHT22;6483;51.310;4.462;2023-02-15T05:58:36;-0.40;99.90
12833;DHT22;6483;51.310;4.462;2023-02-15T06:01:19;0.30;99.90
12833;DHT22;6483;51.310;4.462;2023-02-15T06:03:48;-0.40;99.90
12833;DHT22;6483;51.310;4.462;2023-02-15T06:06:14;-0.60;99.90
12833;DHT22;6483;51.310;4.462;2023-02-15T06:08:41;0.30;99.90
12833;DHT22;6483;51.310;4.462;2023-02-15T06:11:06;-0.20;99.90
12833;DHT22;6483;51.310;4.462;2023-02-15T06:13:33;-0.70;99.90
12833;DHT22;6483;51.310;4.462;2023-02-15T06:15:59;-0.60;99.90
12833;DHT22;6483;51.310;4.462;2023-02-15T06:18:25;0.00;99.90
12833;DHT22;6483;51.310;4.462;2023-02-15T06:20:52;-0.40;99.90
12833;DHT22;6483;51.310;4.462;2023-02-15T06:23:18;-0.20;99.90
12833;DHT22;6483;51.310;4.462;2023-02-15T06:25:45;-0.30;99.90
12833;DHT22;6483;51.310;4.462;2023-02-15T06:28:12;-0.50;99.90
12833;DHT22;6483;51.310;4.462;2023-02-15T06:30:41;-0.20;99.90
12833;DHT22;6483;51.310;4.462;2023-02-15T06:33:06;-0.40;99.90
12833;DHT22;6483;51.310;4.462;2023-02-15T06:35:32;-0.30;99.90
12833;DHT22;6483;51.310;4.462;2023-02-15T06:37:57;0.40;99.90
12833;DHT22;6483;51.310;4.462;2023-02-15T06:40:23;-0.40;99.90
12833;DHT22;6483;51.310;4.462;2023-02-15T06:42:49;-0.30;99.90
12833;DHT22;6483;51.310;4.462;2023-02-15T06:45:15;-0.20;99.90
12833;DHT22;6483;51.310;4.462;2023-02-15T06:47:40;-0.20;99.90
12833;DHT22;6483;51.310;4.462;2023-02-15T06:50:07;-0.30;99.90
12833;DHT22;6483;51.310;4.462;2023-02-15T06:52:36;-0.30;99.90
12833;DHT22;6483;51.310;4.462;2023-02-15T06:55:02;1.10;99.90
12833;DHT22;6483;51.310;4.462;2023-02-15T06:57:28;-0.30;99.90
12833;DHT22;6483;51.310;4.462;2023-02-15T06:59:53;1.20;99.90
12833;DHT22;6483;51.310;4.462;2023-02-15T07:02:20;0.20;99.90
12833;DHT22;6483;51.310;4.462;2023-02-15T07:04:46;-0.40;99.90
12833;DHT22;6483;51.310;4.462;2023-02-15T07:07:12;-0.40;99.90
12833;DHT22;6483;51.310;4.462;2023-02-15T07:09:38;-0.40;99.90
12833;DHT22;6483;51.310;4.462;2023-02-15T07:12:09;-0.40;99.90
12833;DHT22;6483;51.310;4.462;2023-02-15T07:14:53;-0.40;99.90
12833;DHT22;6483;51.310;4.462;2023-02-15T07:17:19;-0.20;99.90
12833;DHT22;6483;51.310;4.462;2023-02-15T07:19:44;0.70;99.90
12833;DHT22;6483;51.310;4.462;2023-02-15T07:22:10;0.50;99.90
12833;DHT22;6483;51.310;4.462;2023-02-15T07:24:43;1.50;99.90
12833;DHT22;6483;51.310;4.462;2023-02-15T07:27:09;0.10;99.90
12833;DHT22;6483;51.310;4.462;2023-02-15T07:29:35;1.10;99.90
12833;DHT22;6483;51.310;4.462;2023-02-15T07:32:02;0.10;99.90
12833;DHT22;6483;51.310;4.462;2023-02-15T07:34:27;0.20;99.90
12833;DHT22;6483;51.310;4.462;2023-02-15T07:36:54;0.20;99.90
12833;DHT22;6483;51.310;4.462;2023-02-15T07:39:20;0.50;99.90
12833;DHT22;6483;51.310;4.462;2023-02-15T07:41:46;0.40;99.90
12833;DHT22;6483;51.310;4.462;2023-02-15T07:44:12;1.30;99.90
12833;DHT22;6483;51.310;4.462;2023-02-15T07:46:41;0.60;99.90
12833;DHT22;6483;51.310;4.462;2023-02-15T07:49:07;0.70;99.90
12833;DHT22;6483;51.310;4.462;2023-02-15T07:51:33;0.80;99.90
12833;DHT22;6483;51.310;4.462;2023-02-15T07:53:59;0.90;99.90
12833;DHT22;6483;51.310;4.462;2023-02-15T07:56:25;1.10;99.90
12833;DHT22;6483;51.310;4.462;2023-02-15T07:58:50;1.10;99.90
12833;DHT22;6483;51.310;4.462;2023-02-15T08:01:22;2.70;99.90
12833;DHT22;6483;51.310;4.462;2023-02-15T08:03:58;1.30;99.90
12833;DHT22;6483;51.310;4.462;2023-02-15T08:06:29;1.40;99.90
12833;DHT22;6483;51.310;4.462;2023-02-15T08:08:55;1.40;99.90
12833;DHT22;6483;51.310;4.462;2023-02-15T08:11:26;1.50;99.90
12833;DHT22;6483;51.310;4.462;2023-02-15T08:14:15;1.70;99.90
12833;DHT22;6483;51.310;4.462;2023-02-15T08:16:49;1.80;99.90
12833;DHT22;6483;51.310;4.462;2023-02-15T08:19:26;2.00;99.90
12833;DHT22;6483;51.310;4.462;2023-02-15T08:21:59;2.20;99.90
12833;DHT22;6483;51.310;4.462;2023-02-15T08:24:29;2.40;99.90
12833;DHT22;6483;51.310;4.462;2023-02-15T08:26:55;2.60;99.90
12833;DHT22;6483;51.310;4.462;2023-02-15T08:29:24;2.70;99.90
12833;DHT22;6483;51.310;4.462;2023-02-15T08:31:53;2.90;99.90
12833;DHT22;6483;51.310;4.462;2023-02-15T08:34:20;3.00;99.90
12833;DHT22;6483;51.310;4.462;2023-02-15T08:36:46;3.10;99.90
12833;DHT22;6483;51.310;4.462;2023-02-15T08:39:14;3.30;99.90
12833;DHT22;6483;51.310;4.462;2023-02-15T08:41:43;3.50;99.90
12833;DHT22;6483;51.310;4.462;2023-02-15T08:44:12;3.70;99.90
12833;DHT22;6483;51.310;4.462;2023-02-15T08:46:40;3.80;99.90
12833;DHT22;6483;51.310;4.462;2023-02-15T08:49:07;4.00;99.90
12833;DHT22;6483;51.310;4.462;2023-02-15T08:51:35;4.30;99.90
12833;DHT22;6483;51.310;4.462;2023-02-15T08:54:06;4.40;99.90
12833;DHT22;6483;51.310;4.462;2023-02-15T08:56:35;4.50;99.90
12833;DHT22;6483;51.310;4.462;2023-02-15T08:59:05;4.90;99.90
12833;DHT22;6483;51.310;4.462;2023-02-15T09:01:32;5.40;99.90
12833;DHT22;6483;51.310;4.462;2023-02-15T09:04:04;6.10;99.90
12833;DHT22;6483;51.310;4.462;2023-02-15T09:06:33;7.00;99.90
12833;DHT22;6483;51.310;4.462;2023-02-15T09:09:00;7.50;99.90
12833;DHT22;6483;51.310;4.462;2023-02-15T09:11:37;7.90;99.90
12833;DHT22;6483;51.310;4.462;2023-02-15T09:14:08;8.00;99.90
12833;DHT22;6483;51.310;4.462;2023-02-15T09:16:37;7.70;99.90
12833;DHT22;6483;51.310;4.462;2023-02-15T09:19:04;7.90;99.90
12833;DHT22;6483;51.310;4.462;2023-02-15T09:21:30;8.00;99.90
12833;DHT22;6483;51.310;4.462;2023-02-15T09:23:58;8.30;99.90
12833;DHT22;6483;51.310;4.462;2023-02-15T09:26:26;8.90;99.90
12833;DHT22;6483;51.310;4.462;2023-02-15T09:28:59;9.50;99.90
12833;DHT22;6483;51.310;4.462;2023-02-15T09:31:32;9.80;99.90
12833;DHT22;6483;51.310;4.462;2023-02-15T09:34:08;10.70;99.90
12833;DHT22;6483;51.310;4.462;2023-02-15T09:36:35;11.20;99.90
12833;DHT22;6483;51.310;4.462;2023-02-15T09:39:15;11.80;99.90
12833;DHT22;6483;51.310;4.462;2023-02-15T09:47:54;12.70;80.60
12833;DHT22;6483;51.310;4.462;2023-02-15T09:56:57;13.10;68.60
12833;DHT22;6483;51.310;4.462;2023-02-15T10:02:33;12.90;71.60
12833;DHT22;6483;51.310;4.462;2023-02-15T10:05:27;13.30;62.80
12833;DHT22;6483;51.310;4.462;2023-02-15T10:08:27;13.40;65.30
12833;DHT22;6483;51.310;4.462;2023-02-15T10:11:01;12.90;61.40
12833;DHT22;6483;51.310;4.462;2023-02-15T10:14:15;12.50;68.90
12833;DHT22;6483;51.310;4.462;2023-02-15T10:17:29;11.70;73.60
12833;DHT22;6483;51.310;4.462;2023-02-15T10:20:13;12.30;77.80
12833;DHT22;6483;51.310;4.462;2023-02-15T10:22:50;13.10;72.80
12833;DHT22;6483;51.310;4.462;2023-02-15T10:28:06;13.40;60.90
12833;DHT22;6483;51.310;4.462;2023-02-15T10:30:49;13.40;52.90
12833;DHT22;6483;51.310;4.462;2023-02-15T10:33:42;14.00;51.40
12833;DHT22;6483;51.310;4.462;2023-02-15T10:36:36;13.80;44.60
12833;DHT22;6483;51.310;4.462;2023-02-15T10:39:25;14.20;43.00
12833;DHT22;6483;51.310;4.462;2023-02-15T10:42:20;13.90;44.20
12833;DHT22;6483;51.310;4.462;2023-02-15T10:45:10;14.30;42.70
12833;DHT22;6483;51.310;4.462;2023-02-15T10:48:12;14.40;42.80
12833;DHT22;6483;51.310;4.462;2023-02-15T11:12:50;16.90;19.00
12833;DHT22;6483;51.310;4.462;2023-02-15T11:15:19;17.40;18.70
12833;DHT22;6483;51.310;4.462;2023-02-15T11:17:52;17.10;17.60
12833;DHT22;6483;51.310;4.462;2023-02-15T11:23:19;17.60;15.50
12833;DHT22;6483;51.310;4.462;2023-02-15T11:25:54;17.80;15.90
12833;DHT22;6483;51.310;4.462;2023-02-15T11:34:39;17.20;12.80
12833;DHT22;6483;51.310;4.462;2023-02-15T11:37:10;16.90;14.70
12833;DHT22;6483;51.310;4.462;2023-02-15T11:39:39;17.50;15.10
12833;DHT22;6483;51.310;4.462;2023-02-15T11:42:30;17.60;12.50
12833;DHT22;6483;51.310;4.462;2023-02-15T11:45:04;17.50;12.60
12833;DHT22;6483;51.310;4.462;2023-02-15T11:47:32;17.20;15.00
12833;DHT22;6483;51.310;4.462;2023-02-15T11:49:59;17.20;14.60
12833;DHT22;6483;51.310;4.462;2023-02-15T11:52:27;17.30;14.20
12833;DHT22;6483;51.310;4.462;2023-02-15T11:54:54;17.10;14.80
12833;DHT22;6483;51.310;4.462;2023-02-15T12:00:44;17.00;14.10
12833;DHT22;6483;51.310;4.462;2023-02-15T12:05:51;15.70;17.50
12833;DHT22;6483;51.310;4.462;2023-02-15T12:08:22;14.90;20.50
12833;DHT22;6483;51.310;4.462;2023-02-15T12:11:15;15.10;21.90
12833;DHT22;6483;51.310;4.462;2023-02-15T12:14:00;15.50;22.50
12833;DHT22;6483;51.310;4.462;2023-02-15T12:16:27;15.30;23.70
12833;DHT22;6483;51.310;4.462;2023-02-15T12:19:32;15.70;23.80
12833;DHT22;6483;51.310;4.462;2023-02-15T12:22:03;15.50;21.90
12833;DHT22;6483;51.310;4.462;2023-02-15T12:24:54;15.70;21.70
12833;DHT22;6483;51.310;4.462;2023-02-15T12:27:30;16.90;20.30
12833;DHT22;6483;51.310;4.462;2023-02-15T12:32:54;18.50;11.60
12833;DHT22;6483;51.310;4.462;2023-02-15T12:35:26;17.90;11.90
12833;DHT22;6483;51.310;4.462;2023-02-15T12:38:02;18.10;12.70
12833;DHT22;6483;51.310;4.462;2023-02-15T12:40:30;18.30;11.00
12833;DHT22;6483;51.310;4.462;2023-02-15T12:42:59;18.60;11.70
12833;DHT22;6483;51.310;4.462;2023-02-15T12:45:31;19.30;9.30
12833;DHT22;6483;51.310;4.462;2023-02-15T12:48:16;18.60;6.90
12833;DHT22;6483;51.310;4.462;2023-02-15T12:50:47;18.20;7.80
12833;DHT22;6483;51.310;4.462;2023-02-15T12:55:38;18.80;12.90
12833;DHT22;6483;51.310;4.462;2023-02-15T12:58:19;16.60;12.80
12833;DHT22;6483;51.310;4.462;2023-02-15T13:00:46;16.00;13.90
12833;DHT22;6483;51.310;4.462;2023-02-15T13:03:20;15.70;15.50
12833;DHT22;6483;51.310;4.462;2023-02-15T13:05:53;16.10;17.30
12833;DHT22;6483;51.310;4.462;2023-02-15T13:08:25;16.20;16.30
12833;DHT22;6483;51.310;4.462;2023-02-15T13:11:08;16.20;16.40
12833;DHT22;6483;51.310;4.462;2023-02-15T13:14:00;16.50;16.00
12833;DHT22;6483;51.310;4.462;2023-02-15T13:16:36;17.70;13.30
12833;DHT22;6483;51.310;4.462;2023-02-15T13:19:16;18.50;11.50
12833;DHT22;6483;51.310;4.462;2023-02-15T13:21:48;18.20;10.50
12833;DHT22;6483;51.310;4.462;2023-02-15T13:26:56;16.00;14.70
12833;DHT22;6483;51.310;4.462;2023-02-15T13:29:28;15.90;17.20
12833;DHT22;6483;51.310;4.462;2023-02-15T13:31:56;15.70;15.00
12833;DHT22;6483;51.310;4.462;2023-02-15T13:34:26;13.20;14.10
12833;DHT22;6483;51.310;4.462;2023-02-15T13:40:15;16.30;15.00
12833;DHT22;6483;51.310;4.462;2023-02-15T13:42:56;16.00;14.70
12833;DHT22;6483;51.310;4.462;2023-02-15T13:46:08;15.50;17.50
12833;DHT22;6483;51.310;4.462;2023-02-15T13:49:00;15.50;18.00
12833;DHT22;6483;51.310;4.462;2023-02-15T13:57:35;15.20;23.80
12833;DHT22;6483;51.310;4.462;2023-02-15T14:03:05;17.30;16.50
12833;DHT22;6483;51.310;4.462;2023-02-15T14:08:38;16.40;15.20
12833;DHT22;6483;51.310;4.462;2023-02-15T14:11:21;16.40;16.50
12833;DHT22;6483;51.310;4.462;2023-02-15T14:16:45;17.20;15.20
12833;DHT22;6483;51.310;4.462;2023-02-15T14:19:32;17.40;14.10
12833;DHT22;6483;51.310;4.462;2023-02-15T14:30:01;17.80;12.70
12833;DHT22;6483;51.310;4.462;2023-02-15T14:32:47;18.10;11.20
12833;DHT22;6483;51.310;4.462;2023-02-15T14:35:17;18.30;9.80
12833;DHT22;6483;51.310;4.462;2023-02-15T14:40:59;18.80;6.90
12833;DHT22;6483;51.310;4.462;2023-02-15T14:46:30;18.70;7.10
12833;DHT22;6483;51.310;4.462;2023-02-15T14:54:10;19.60;2.00
12833;DHT22;6483;51.310;4.462;2023-02-15T14:56:36;18.80;3.40
12833;DHT22;6483;51.310;4.462;2023-02-15T14:59:14;18.90;2.60
12833;DHT22;6483;51.310;4.462;2023-02-15T15:01:40;18.40;2.50
12833;DHT22;6483;51.310;4.462;2023-02-15T15:04:14;18.10;4.10
12833;DHT22;6483;51.310;4.462;2023-02-15T15:07:08;17.20;5.60
12833;DHT22;6483;51.310;4.462;2023-02-15T15:09:37;17.00;8.80
12833;DHT22;6483;51.310;4.462;2023-02-15T15:14:52;16.60;11.40
12833;DHT22;6483;51.310;4.462;2023-02-15T15:20:09;16.30;13.30
12833;DHT22;6483;51.310;4.462;2023-02-15T15:22:42;16.40;13.90
12833;DHT22;6483;51.310;4.462;2023-02-15T15:27:53;16.20;13.90
12833;DHT22;6483;51.310;4.462;2023-02-15T15:32:51;15.10;15.80
12833;DHT22;6483;51.310;4.462;2023-02-15T15:41:59;15.10;20.30
12833;DHT22;6483;51.310;4.462;2023-02-15T15:49:40;14.10;29.60
12833;DHT22;6483;51.310;4.462;2023-02-15T15:52:14;13.70;38.30
12833;DHT22;6483;51.310;4.462;2023-02-15T15:54:42;13.50;41.80
12833;DHT22;6483;51.310;4.462;2023-02-15T15:59:53;13.10;48.10
12833;DHT22;6483;51.310;4.462;2023-02-15T16:02:20;13.00;52.40
12833;DHT22;6483;51.310;4.462;2023-02-15T16:04:46;12.90;54.20
12833;DHT22;6483;51.310;4.462;2023-02-15T16:09:57;12.50;57.50
12833;DHT22;6483;51.310;4.462;2023-02-15T16:12:41;12.30;63.80
12833;DHT22;6483;51.310;4.462;2023-02-15T16:15:20;12.10;69.10
12833;DHT22;6483;51.310;4.462;2023-02-15T16:17:50;12.00;80.90
12833;DHT22;6483;51.310;4.462;2023-02-15T16:20:31;11.80;79.20
12833;DHT22;6483;51.310;4.462;2023-02-15T16:25:52;11.40;89.10
12833;DHT22;6483;51.310;4.462;2023-02-15T16:28:23;11.30;90.50
12833;DHT22;6483;51.310;4.462;2023-02-15T16:31:16;11.20;92.30
12833;DHT22;6483;51.310;4.462;2023-02-15T16:33:43;11.10;93.90
12833;DHT22;6483;51.310;4.462;2023-02-15T16:36:20;10.90;94.60
12833;DHT22;6483;51.310;4.462;2023-02-15T16:39:07;10.90;96.70
12833;DHT22;6483;51.310;4.462;2023-02-15T16:41:33;10.80;98.50
12833;DHT22;6483;51.310;4.462;2023-02-15T16:44:07;10.80;99.20
12833;DHT22;6483;51.310;4.462;2023-02-15T16:46:39;10.80;99.90
12833;DHT22;6483;51.310;4.462;2023-02-15T16:49:26;10.70;99.90
12833;DHT22;6483;51.310;4.462;2023-02-15T16:52:01;10.60;99.90
12833;DHT22;6483;51.310;4.462;2023-02-15T16:54:31;10.50;99.90
12833;DHT22;6483;51.310;4.462;2023-02-15T16:57:00;10.50;99.90
12833;DHT22;6483;51.310;4.462;2023-02-15T16:59:37;10.30;99.90
12833;DHT22;6483;51.310;4.462;2023-02-15T17:02:14;10.20;99.90
12833;DHT22;6483;51.310;4.462;2023-02-15T17:04:41;10.10;99.90
12833;DHT22;6483;51.310;4.462;2023-02-15T17:07:19;10.00;99.90
12833;DHT22;6483;51.310;4.462;2023-02-15T17:09:55;9.90;99.90
12833;DHT22;6483;51.310;4.462;2023-02-15T17:12:47;9.60;99.90
12833;DHT22;6483;51.310;4.462;2023-02-15T17:18:20;9.50;99.90
12833;DHT22;6483;51.310;4.462;2023-02-15T17:20:53;9.20;99.90
12833;DHT22;6483;51.310;4.462;2023-02-15T17:25:52;9.40;99.90
12833;DHT22;6483;51.310;4.462;2023-02-15T17:28:27;9.40;99.90
12833;DHT22;6483;51.310;4.462;2023-02-15T17:30:54;9.40;99.90
12833;DHT22;6483;51.310;4.462;2023-02-15T17:36:19;9.00;99.90
12833;DHT22;6483;51.310;4.462;2023-02-15T17:42:00;8.70;99.90
12833;DHT22;6483;51.310;4.462;2023-02-15T17:44:38;8.60;99.90
12833;DHT22;6483;51.310;4.462;2023-02-15T17:47:04;8.50;99.90
12833;DHT22;6483;51.310;4.462;2023-02-15T17:49:30;8.50;99.90
12833;DHT22;6483;51.310;4.462;2023-02-15T17:52:05;8.40;99.90
12833;DHT22;6483;51.310;4.462;2023-02-15T17:54:32;8.30;99.90
12833;DHT22;6483;51.310;4.462;2023-02-15T17:57:17;8.30;99.90
12833;DHT22;6483;51.310;4.462;2023-02-15T17:59:42;8.20;99.90
12833;DHT22;6483;51.310;4.462;2023-02-15T18:02:34;8.30;99.90
12833;DHT22;6483;51.310;4.462;2023-02-15T18:05:18;8.30;99.90
12833;DHT22;6483;51.310;4.462;2023-02-15T18:08:05;8.20;99.90
12833;DHT22;6483;51.310;4.462;2023-02-15T18:10:52;8.10;99.90
12833;DHT22;6483;51.310;4.462;2023-02-15T18:13:36;8.00;99.90
12833;DHT22;6483;51.310;4.462;2023-02-15T18:16:03;8.20;99.90
12833;DHT22;6483;51.310;4.462;2023-02-15T18:18:32;8.30;99.90
12833;DHT22;6483;51.310;4.462;2023-02-15T18:21:01;8.30;99.90
12833;DHT22;6483;51.310;4.462;2023-02-15T18:23:26;8.30;99.90
12833;DHT22;6483;51.310;4.462;2023-02-15T18:25:52;8.30;99.90
12833;DHT22;6483;51.310;4.462;2023-02-15T18:28:18;8.10;99.90
12833;DHT22;6483;51.310;4.462;2023-02-15T18:30:43;8.10;99.90
12833;DHT22;6483;51.310;4.462;2023-02-15T18:33:35;8.00;99.90
12833;DHT22;6483;51.310;4.462;2023-02-15T18:36:03;8.00;99.90
12833;DHT22;6483;51.310;4.462;2023-02-15T18:38:30;8.00;99.90
12833;DHT22;6483;51.310;4.462;2023-02-15T18:41:01;8.00;99.90
12833;DHT22;6483;51.310;4.462;2023-02-15T18:43:27;7.90;99.90
12833;DHT22;6483;51.310;4.462;2023-02-15T18:45:56;7.80;99.90
12833;DHT22;6483;51.310;4.462;2023-02-15T18:48:22;7.70;99.90
12833;DHT22;6483;51.310;4.462;2023-02-15T18:50:52;7.70;99.90
12833;DHT22;6483;51.310;4.462;2023-02-15T18:53:19;7.60;99.90
12833;DHT22;6483;51.310;4.462;2023-02-15T18:55:45;5.70;99.90
12833;DHT22;6483;51.310;4.462;2023-02-15T18:58:19;7.60;99.90
12833;DHT22;6483;51.310;4.462;2023-02-15T19:00:49;7.60;99.90
12833;DHT22;6483;51.310;4.462;2023-02-15T19:03:16;7.70;99.90
12833;DHT22;6483;51.310;4.462;2023-02-15T19:05:46;7.70;99.90
12833;DHT22;6483;51.310;4.462;2023-02-15T19:08:20;7.70;99.90